sensor_id;sensor_type;location;lat;lon;timestamp;temperature;humidity
23147;DHT22;11742;53.532;-1.478;2022-10-26T00:02:24;19.60;73.90
23147;DHT22;11742;53.532;-1.478;2022-10-26T00:04:50;19.60;73.90
23147;DHT22;11742;53.532;-1.478;2022-10-26T00:07:15;19.60;73.90
23147;DHT22;11742;53.532;-1.478;2022-10-26T00:09:41;19.60;73.90
23147;DHT22;11742;53.532;-1.478;2022-10-26T00:12:06;19.60;73.90
23147;DHT22;11742;53.532;-1.478;2022-10-26T00:14:32;19.60;73.90
23147;DHT22;11742;53.532;-1.478;2022-10-26T00:16:58;19.50;73.90
23147;DHT22;11742;53.532;-1.478;2022-10-26T00:19:24;19.60;74.00
23147;DHT22;11742;53.532;-1.478;2022-10-26T00:21:49;19.50;74.80
23147;DHT22;11742;53.532;-1.478;2022-10-26T00:24:16;19.50;73.90
23147;DHT22;11742;53.532;-1.478;2022-10-26T00:26:41;19.50;73.90
23147;DHT22;11742;53.532;-1.478;2022-10-26T00:29:09;19.50;73.90
23147;DHT22;11742;53.532;-1.478;2022-10-26T00:31:35;19.50;73.90
23147;DHT22;11742;53.532;-1.478;2022-10-26T00:34:01;19.50;74.00
23147;DHT22;11742;53.532;-1.478;2022-10-26T00:36:27;19.40;73.90
23147;DHT22;11742;53.532;-1.478;2022-10-26T00:38:54;19.50;73.90
23147;DHT22;11742;53.532;-1.478;2022-10-26T00:41:23;19.50;74.00
23147;DHT22;11742;53.532;-1.478;2022-10-26T00:43:49;19.50;74.00
23147;DHT22;11742;53.532;-1.478;2022-10-26T00:46:36;19.40;74.00
23147;DHT22;11742;53.532;-1.478;2022-10-26T00:49:13;19.40;74.00
23147;DHT22;11742;53.532;-1.478;2022-10-26T00:51:47;19.40;74.10
23147;DHT22;11742;53.532;-1.478;2022-10-26T00:54:16;19.40;74.10
23147;DHT22;11742;53.532;-1.478;2022-10-26T00:56:44;19.40;74.10
23147;DHT22;11742;53.532;-1.478;2022-10-26T00:59:11;19.40;74.10
23147;DHT22;11742;53.532;-1.478;2022-10-26T01:01:40;19.40;74.10
23147;DHT22;11742;53.532;-1.478;2022-10-26T01:04:07;19.40;74.10
23147;DHT22;11742;53.532;-1.478;2022-10-26T01:06:34;19.30;74.20
23147;DHT22;11742;53.532;-1.478;2022-10-26T01:09:02;19.40;74.20
23147;DHT22;11742;53.532;-1.478;2022-10-26T01:11:28;19.30;74.20
23147;DHT22;11742;53.532;-1.478;2022-10-26T01:13:54;19.30;74.20
23147;DHT22;11742;53.532;-1.478;2022-10-26T01:17:09;19.30;74.20
23147;DHT22;11742;53.532;-1.478;2022-10-26T01:28:41;19.30;74.40
23147;DHT22;11742;53.532;-1.478;2022-10-26T01:31:13;19.30;74.40
23147;DHT22;11742;53.532;-1.478;2022-10-26T01:33:45;19.20;74.40
23147;DHT22;11742;53.532;-1.478;2022-10-26T01:36:47;19.20;74.40
23147;DHT22;11742;53.532;-1.478;2022-10-26T01:39:16;19.20;74.30
23147;DHT22;11742;53.532;-1.478;2022-10-26T01:41:48;19.20;74.50
23147;DHT22;11742;53.532;-1.478;2022-10-26T01:44:25;19.20;74.50
23147;DHT22;11742;53.532;-1.478;2022-10-26T01:46:53;19.20;74.50
23147;DHT22;11742;53.532;-1.478;2022-10-26T01:49:33;19.20;74.50
23147;DHT22;11742;53.532;-1.478;2022-10-26T01:52:00;19.20;74.50
23147;DHT22;11742;53.532;-1.478;2022-10-26T01:54:25;19.20;74.50
23147;DHT22;11742;53.532;-1.478;2022-10-26T01:56:53;19.20;74.60
23147;DHT22;11742;53.532;-1.478;2022-10-26T01:59:29;19.20;74.60
23147;DHT22;11742;53.532;-1.478;2022-10-26T02:02:19;19.20;74.70
23147;DHT22;11742;53.532;-1.478;2022-10-26T02:07:42;19.20;74.70
23147;DHT22;11742;53.532;-1.478;2022-10-26T02:10:27;19.20;74.80
23147;DHT22;11742;53.532;-1.478;2022-10-26T02:20:50;19.10;75.10
23147;DHT22;11742;53.532;-1.478;2022-10-26T02:23:19;19.10;75.00
23147;DHT22;11742;53.532;-1.478;2022-10-26T02:25:50;19.10;75.10
23147;DHT22;11742;53.532;-1.478;2022-10-26T02:28:21;19.10;75.00
23147;DHT22;11742;53.532;-1.478;2022-10-26T02:30:52;19.10;75.10
23147;DHT22;11742;53.532;-1.478;2022-10-26T02:33:19;19.10;76.00
23147;DHT22;11742;53.532;-1.478;2022-10-26T02:35:51;19.10;75.10
23147;DHT22;11742;53.532;-1.478;2022-10-26T02:38:18;19.10;75.10
23147;DHT22;11742;53.532;-1.478;2022-10-26T02:40:47;19.10;75.10
23147;DHT22;11742;53.532;-1.478;2022-10-26T02:43:16;19.10;75.10
23147;DHT22;11742;53.532;-1.478;2022-10-26T02:45:58;19.10;75.30
23147;DHT22;11742;53.532;-1.478;2022-10-26T02:48:27;19.10;75.30
23147;DHT22;11742;53.532;-1.478;2022-10-26T02:51:03;19.10;75.30
23147;DHT22;11742;53.532;-1.478;2022-10-26T02:54:04;19.10;75.30
23147;DHT22;11742;53.532;-1.478;2022-10-26T02:56:47;19.10;75.30
23147;DHT22;11742;53.532;-1.478;2022-10-26T02:59:19;19.10;75.50
23147;DHT22;11742;53.532;-1.478;2022-10-26T03:01:45;19.00;75.40
23147;DHT22;11742;53.532;-1.478;2022-10-26T03:04:11;19.00;75.40
23147;DHT22;11742;53.532;-1.478;2022-10-26T03:06:37;19.00;75.60
23147;DHT22;11742;53.532;-1.478;2022-10-26T03:09:03;19.00;75.50
23147;DHT22;11742;53.532;-1.478;2022-10-26T03:11:28;19.10;75.60
23147;DHT22;11742;53.532;-1.478;2022-10-26T03:13:54;19.00;75.60
23147;DHT22;11742;53.532;-1.478;2022-10-26T03:16:20;19.00;75.60
23147;DHT22;11742;53.532;-1.478;2022-10-26T03:18:45;19.10;75.70
23147;DHT22;11742;53.532;-1.478;2022-10-26T03:21:11;19.00;75.60
23147;DHT22;11742;53.532;-1.478;2022-10-26T03:23:37;19.00;75.70
23147;DHT22;11742;53.532;-1.478;2022-10-26T03:26:02;19.00;75.80
23147;DHT22;11742;53.532;-1.478;2022-10-26T03:28:28;19.00;75.80
23147;DHT22;11742;53.532;-1.478;2022-10-26T03:30:53;19.00;75.80
23147;DHT22;11742;53.532;-1.478;2022-10-26T03:33:19;19.00;75.90
23147;DHT22;11742;53.532;-1.478;2022-10-26T03:35:45;19.00;75.90
23147;DHT22;11742;53.532;-1.478;2022-10-26T03:38:10;19.00;76.00
23147;DHT22;11742;53.532;-1.478;2022-10-26T03:40:36;19.00;76.00
23147;DHT22;11742;53.532;-1.478;2022-10-26T03:43:02;19.00;76.00
23147;DHT22;11742;53.532;-1.478;2022-10-26T03:45:28;19.00;76.10
23147;DHT22;11742;53.532;-1.478;2022-10-26T03:47:53;19.00;76.10
23147;DHT22;11742;53.532;-1.478;2022-10-26T03:50:21;19.00;76.20
23147;DHT22;11742;53.532;-1.478;2022-10-26T03:52:48;19.00;76.20
23147;DHT22;11742;53.532;-1.478;2022-10-26T03:55:14;19.00;76.20
23147;DHT22;11742;53.532;-1.478;2022-10-26T03:57:41;19.00;76.30
23147;DHT22;11742;53.532;-1.478;2022-10-26T04:00:07;19.00;76.30
23147;DHT22;11742;53.532;-1.478;2022-10-26T04:02:33;19.00;76.40
23147;DHT22;11742;53.532;-1.478;2022-10-26T04:04:59;19.10;76.50
23147;DHT22;11742;53.532;-1.478;2022-10-26T04:07:24;19.00;76.40
23147;DHT22;11742;53.532;-1.478;2022-10-26T04:09:50;19.00;76.50
23147;DHT22;11742;53.532;-1.478;2022-10-26T04:12:16;19.00;76.50
23147;DHT22;11742;53.532;-1.478;2022-10-26T04:14:41;19.00;76.60
23147;DHT22;11742;53.532;-1.478;2022-10-26T04:17:07;19.00;76.60
23147;DHT22;11742;53.532;-1.478;2022-10-26T04:19:32;19.00;76.60
23147;DHT22;11742;53.532;-1.478;2022-10-26T04:21:58;19.00;76.70
23147;DHT22;11742;53.532;-1.478;2022-10-26T04:24:24;19.00;76.70
23147;DHT22;11742;53.532;-1.478;2022-10-26T04:26:49;19.00;76.70
23147;DHT22;11742;53.532;-1.478;2022-10-26T04:29:15;19.10;76.90
23147;DHT22;11742;53.532;-1.478;2022-10-26T04:31:40;19.10;76.90
23147;DHT22;11742;53.532;-1.478;2022-10-26T04:34:07;19.10;76.90
23147;DHT22;11742;53.532;-1.478;2022-10-26T04:36:33;19.00;76.90
23147;DHT22;11742;53.532;-1.478;2022-10-26T04:38:59;19.10;77.00
23147;DHT22;11742;53.532;-1.478;2022-10-26T04:41:25;19.10;77.00
23147;DHT22;11742;53.532;-1.478;2022-10-26T04:43:50;19.10;77.00
23147;DHT22;11742;53.532;-1.478;2022-10-26T04:46:16;19.10;77.00
23147;DHT22;11742;53.532;-1.478;2022-10-26T04:48:42;19.10;77.10
23147;DHT22;11742;53.532;-1.478;2022-10-26T04:51:07;19.10;77.00
23147;DHT22;11742;53.532;-1.478;2022-10-26T04:53:33;19.10;77.00
23147;DHT22;11742;53.532;-1.478;2022-10-26T04:56:00;19.10;77.00
23147;DHT22;11742;53.532;-1.478;2022-10-26T04:58:27;19.10;77.00
23147;DHT22;11742;53.532;-1.478;2022-10-26T05:00:53;19.10;77.00
23147;DHT22;11742;53.532;-1.478;2022-10-26T05:03:19;19.10;77.00
23147;DHT22;11742;53.532;-1.478;2022-10-26T05:05:45;19.10;77.00
23147;DHT22;11742;53.532;-1.478;2022-10-26T05:08:15;19.10;77.00
23147;DHT22;11742;53.532;-1.478;2022-10-26T05:10:41;19.10;77.00
23147;DHT22;11742;53.532;-1.478;2022-10-26T05:13:08;19.10;77.00
23147;DHT22;11742;53.532;-1.478;2022-10-26T05:15:34;19.10;77.10
23147;DHT22;11742;53.532;-1.478;2022-10-26T05:18:02;19.10;77.10
23147;DHT22;11742;53.532;-1.478;2022-10-26T05:20:31;19.10;77.10
23147;DHT22;11742;53.532;-1.478;2022-10-26T05:22:58;19.20;77.20
23147;DHT22;11742;53.532;-1.478;2022-10-26T05:25:26;19.10;77.20
23147;DHT22;11742;53.532;-1.478;2022-10-26T05:27:59;19.20;77.30
23147;DHT22;11742;53.532;-1.478;2022-10-26T05:30:26;19.10;77.20
23147;DHT22;11742;53.532;-1.478;2022-10-26T05:32:56;19.10;77.20
23147;DHT22;11742;53.532;-1.478;2022-10-26T05:35:22;19.10;77.30
23147;DHT22;11742;53.532;-1.478;2022-10-26T05:37:48;19.20;77.40
23147;DHT22;11742;53.532;-1.478;2022-10-26T05:40:14;19.20;77.40
23147;DHT22;11742;53.532;-1.478;2022-10-26T05:42:41;19.10;77.40
23147;DHT22;11742;53.532;-1.478;2022-10-26T05:45:07;19.20;77.60
23147;DHT22;11742;53.532;-1.478;2022-10-26T05:47:40;19.20;77.60
23147;DHT22;11742;53.532;-1.478;2022-10-26T05:50:07;19.20;77.50
23147;DHT22;11742;53.532;-1.478;2022-10-26T05:52:44;19.20;77.60
23147;DHT22;11742;53.532;-1.478;2022-10-26T05:55:15;19.20;77.50
23147;DHT22;11742;53.532;-1.478;2022-10-26T05:57:41;19.20;77.60
23147;DHT22;11742;53.532;-1.478;2022-10-26T06:00:09;19.20;77.60
23147;DHT22;11742;53.532;-1.478;2022-10-26T06:05:22;19.20;77.60
23147;DHT22;11742;53.532;-1.478;2022-10-26T06:07:49;19.20;77.60
23147;DHT22;11742;53.532;-1.478;2022-10-26T06:10:15;19.20;77.50
23147;DHT22;11742;53.532;-1.478;2022-10-26T06:12:41;19.20;77.50
23147;DHT22;11742;53.532;-1.478;2022-10-26T06:15:11;19.20;77.60
23147;DHT22;11742;53.532;-1.478;2022-10-26T06:17:59;19.20;77.40
23147;DHT22;11742;53.532;-1.478;2022-10-26T06:23:15;19.20;77.40
23147;DHT22;11742;53.532;-1.478;2022-10-26T06:30:57;19.20;77.40
23147;DHT22;11742;53.532;-1.478;2022-10-26T06:33:23;19.20;77.30
23147;DHT22;11742;53.532;-1.478;2022-10-26T06:36:11;19.20;77.30
23147;DHT22;11742;53.532;-1.478;2022-10-26T06:38:39;19.20;77.30
23147;DHT22;11742;53.532;-1.478;2022-10-26T06:41:06;19.20;77.20
23147;DHT22;11742;53.532;-1.478;2022-10-26T06:43:34;19.20;77.20
23147;DHT22;11742;53.532;-1.478;2022-10-26T06:51:54;19.20;77.20
23147;DHT22;11742;53.532;-1.478;2022-10-26T06:54:48;19.20;77.20
23147;DHT22;11742;53.532;-1.478;2022-10-26T06:57:20;19.20;77.10
23147;DHT22;11742;53.532;-1.478;2022-10-26T06:59:52;19.20;77.10
23147;DHT22;11742;53.532;-1.478;2022-10-26T07:02:18;19.20;77.10
23147;DHT22;11742;53.532;-1.478;2022-10-26T07:04:44;19.20;77.10
23147;DHT22;11742;53.532;-1.478;2022-10-26T07:07:13;19.20;77.10
23147;DHT22;11742;53.532;-1.478;2022-10-26T07:09:39;19.20;77.10
23147;DHT22;11742;53.532;-1.478;2022-10-26T07:12:05;19.20;77.00
23147;DHT22;11742;53.532;-1.478;2022-10-26T07:14:31;19.20;77.00
23147;DHT22;11742;53.532;-1.478;2022-10-26T07:16:57;19.20;77.10
23147;DHT22;11742;53.532;-1.478;2022-10-26T07:19:23;19.20;77.10
23147;DHT22;11742;53.532;-1.478;2022-10-26T07:21:48;19.20;77.10
23147;DHT22;11742;53.532;-1.478;2022-10-26T07:24:14;19.20;77.00
23147;DHT22;11742;53.532;-1.478;2022-10-26T07:26:40;19.20;77.00
23147;DHT22;11742;53.532;-1.478;2022-10-26T07:29:05;19.20;77.00
23147;DHT22;11742;53.532;-1.478;2022-10-26T07:31:31;19.20;77.00
23147;DHT22;11742;53.532;-1.478;2022-10-26T07:33:57;19.20;77.00
23147;DHT22;11742;53.532;-1.478;2022-10-26T07:36:22;19.20;77.10
23147;DHT22;11742;53.532;-1.478;2022-10-26T07:38:52;19.20;77.00
23147;DHT22;11742;53.532;-1.478;2022-10-26T07:41:18;19.20;77.20
23147;DHT22;11742;53.532;-1.478;2022-10-26T07:43:44;19.20;77.10
23147;DHT22;11742;53.532;-1.478;2022-10-26T07:46:11;19.20;77.20
23147;DHT22;11742;53.532;-1.478;2022-10-26T07:48:37;19.20;77.20
23147;DHT22;11742;53.532;-1.478;2022-10-26T07:51:04;19.20;77.20
23147;DHT22;11742;53.532;-1.478;2022-10-26T07:53:29;19.20;77.20
23147;DHT22;11742;53.532;-1.478;2022-10-26T07:55:56;19.20;77.30
23147;DHT22;11742;53.532;-1.478;2022-10-26T07:58:22;19.20;77.30
23147;DHT22;11742;53.532;-1.478;2022-10-26T08:00:51;19.20;77.40
23147;DHT22;11742;53.532;-1.478;2022-10-26T08:03:17;19.20;78.40
23147;DHT22;11742;53.532;-1.478;2022-10-26T08:05:48;19.30;77.70
23147;DHT22;11742;53.532;-1.478;2022-10-26T08:08:20;19.30;77.80
23147;DHT22;11742;53.532;-1.478;2022-10-26T08:10:46;19.30;77.80
23147;DHT22;11742;53.532;-1.478;2022-10-26T08:13:13;19.30;77.70
23147;DHT22;11742;53.532;-1.478;2022-10-26T08:15:39;19.30;77.60
23147;DHT22;11742;53.532;-1.478;2022-10-26T08:18:05;19.30;77.50
23147;DHT22;11742;53.532;-1.478;2022-10-26T08:20:31;19.40;77.60
23147;DHT22;11742;53.532;-1.478;2022-10-26T08:22:58;19.40;77.60
23147;DHT22;11742;53.532;-1.478;2022-10-26T08:25:26;19.40;77.60
23147;DHT22;11742;53.532;-1.478;2022-10-26T08:27:52;19.40;77.80
23147;DHT22;11742;53.532;-1.478;2022-10-26T08:30:18;19.40;77.70
23147;DHT22;11742;53.532;-1.478;2022-10-26T08:32:44;19.40;77.60
23147;DHT22;11742;53.532;-1.478;2022-10-26T08:35:10;19.40;77.60
23147;DHT22;11742;53.532;-1.478;2022-10-26T08:37:35;19.50;77.60
23147;DHT22;11742;53.532;-1.478;2022-10-26T08:40:03;19.40;77.60
23147;DHT22;11742;53.532;-1.478;2022-10-26T08:42:32;19.40;77.60
23147;DHT22;11742;53.532;-1.478;2022-10-26T08:45:03;19.40;77.60
23147;DHT22;11742;53.532;-1.478;2022-10-26T08:47:34;19.40;77.50
23147;DHT22;11742;53.532;-1.478;2022-10-26T08:50:08;19.50;77.60
23147;DHT22;11742;53.532;-1.478;2022-10-26T08:53:07;19.50;77.50
23147;DHT22;11742;53.532;-1.478;2022-10-26T08:55:47;19.50;77.50
23147;DHT22;11742;53.532;-1.478;2022-10-26T08:58:17;19.50;77.60
23147;DHT22;11742;53.532;-1.478;2022-10-26T09:00:46;19.50;77.60
23147;DHT22;11742;53.532;-1.478;2022-10-26T09:03:17;19.50;77.60
23147;DHT22;11742;53.532;-1.478;2022-10-26T09:06:20;19.50;78.40
23147;DHT22;11742;53.532;-1.478;2022-10-26T09:15:03;19.50;77.70
23147;DHT22;11742;53.532;-1.478;2022-10-26T09:26:00;19.60;79.10
23147;DHT22;11742;53.532;-1.478;2022-10-26T09:28:28;19.60;79.40
23147;DHT22;11742;53.532;-1.478;2022-10-26T09:30:57;19.70;79.40
23147;DHT22;11742;53.532;-1.478;2022-10-26T09:33:24;19.70;79.60
23147;DHT22;11742;53.532;-1.478;2022-10-26T09:36:02;19.70;79.70
23147;DHT22;11742;53.532;-1.478;2022-10-26T09:39:03;19.80;80.00
23147;DHT22;11742;53.532;-1.478;2022-10-26T09:41:39;19.80;80.10
23147;DHT22;11742;53.532;-1.478;2022-10-26T09:44:24;19.90;80.40
23147;DHT22;11742;53.532;-1.478;2022-10-26T09:47:04;19.90;80.30
23147;DHT22;11742;53.532;-1.478;2022-10-26T09:49:44;20.00;80.50
23147;DHT22;11742;53.532;-1.478;2022-10-26T09:52:13;20.00;80.60
23147;DHT22;11742;53.532;-1.478;2022-10-26T09:54:39;20.00;80.70
23147;DHT22;11742;53.532;-1.478;2022-10-26T09:57:07;20.10;81.00
23147;DHT22;11742;53.532;-1.478;2022-10-26T09:59:37;20.10;81.10
23147;DHT22;11742;53.532;-1.478;2022-10-26T10:05:30;20.30;81.40
23147;DHT22;11742;53.532;-1.478;2022-10-26T10:08:13;20.30;81.40
23147;DHT22;11742;53.532;-1.478;2022-10-26T10:10:56;20.40;81.50
23147;DHT22;11742;53.532;-1.478;2022-10-26T10:13:28;20.40;81.60
23147;DHT22;11742;53.532;-1.478;2022-10-26T10:18:39;20.60;81.80
23147;DHT22;11742;53.532;-1.478;2022-10-26T10:21:06;20.60;81.70
23147;DHT22;11742;53.532;-1.478;2022-10-26T10:23:35;20.70;81.90
23147;DHT22;11742;53.532;-1.478;2022-10-26T10:26:10;20.70;81.80
23147;DHT22;11742;53.532;-1.478;2022-10-26T10:28:36;20.80;82.00
23147;DHT22;11742;53.532;-1.478;2022-10-26T10:31:20;20.80;82.00
23147;DHT22;11742;53.532;-1.478;2022-10-26T10:33:46;20.90;82.10
23147;DHT22;11742;53.532;-1.478;2022-10-26T10:36:21;20.90;82.10
23147;DHT22;11742;53.532;-1.478;2022-10-26T10:38:49;21.00;82.20
23147;DHT22;11742;53.532;-1.478;2022-10-26T10:41:34;21.10;82.20
23147;DHT22;11742;53.532;-1.478;2022-10-26T10:44:19;21.20;82.40
23147;DHT22;11742;53.532;-1.478;2022-10-26T10:46:46;21.20;82.10
23147;DHT22;11742;53.532;-1.478;2022-10-26T10:49:22;21.30;81.90
23147;DHT22;11742;53.532;-1.478;2022-10-26T10:51:49;21.40;81.70
23147;DHT22;11742;53.532;-1.478;2022-10-26T10:54:45;21.40;81.50
23147;DHT22;11742;53.532;-1.478;2022-10-26T10:57:24;21.50;81.50
23147;DHT22;11742;53.532;-1.478;2022-10-26T11:00:05;21.50;81.40
23147;DHT22;11742;53.532;-1.478;2022-10-26T11:05:22;21.60;81.20
23147;DHT22;11742;53.532;-1.478;2022-10-26T11:08:07;21.60;81.00
23147;DHT22;11742;53.532;-1.478;2022-10-26T11:10:47;21.70;80.90
23147;DHT22;11742;53.532;-1.478;2022-10-26T11:13:23;21.70;80.60
23147;DHT22;11742;53.532;-1.478;2022-10-26T11:15:54;21.70;80.40
23147;DHT22;11742;53.532;-1.478;2022-10-26T11:18:38;21.70;80.20
23147;DHT22;11742;53.532;-1.478;2022-10-26T11:23:47;21.80;80.20
23147;DHT22;11742;53.532;-1.478;2022-10-26T11:26:37;21.80;80.20
23147;DHT22;11742;53.532;-1.478;2022-10-26T11:31:48;21.80;79.90
23147;DHT22;11742;53.532;-1.478;2022-10-26T11:34:46;21.90;79.90
23147;DHT22;11742;53.532;-1.478;2022-10-26T11:45:36;22.00;79.80
23147;DHT22;11742;53.532;-1.478;2022-10-26T11:48:05;22.00;79.80
23147;DHT22;11742;53.532;-1.478;2022-10-26T11:50:35;22.00;79.70
23147;DHT22;11742;53.532;-1.478;2022-10-26T11:53:25;22.00;79.60
23147;DHT22;11742;53.532;-1.478;2022-10-26T11:55:53;22.10;79.40
23147;DHT22;11742;53.532;-1.478;2022-10-26T11:58:25;22.10;79.40
23147;DHT22;11742;53.532;-1.478;2022-10-26T12:01:03;22.10;79.00
23147;DHT22;11742;53.532;-1.478;2022-10-26T12:03:35;22.10;78.60
23147;DHT22;11742;53.532;-1.478;2022-10-26T12:06:02;22.10;78.60
23147;DHT22;11742;53.532;-1.478;2022-10-26T12:08:40;22.20;78.60
23147;DHT22;11742;53.532;-1.478;2022-10-26T12:14:03;22.20;78.70
23147;DHT22;11742;53.532;-1.478;2022-10-26T12:19:11;22.20;78.70
23147;DHT22;11742;53.532;-1.478;2022-10-26T12:21:37;22.30;78.80
23147;DHT22;11742;53.532;-1.478;2022-10-26T12:26:58;22.40;78.70
23147;DHT22;11742;53.532;-1.478;2022-10-26T12:31:53;22.40;78.70
23147;DHT22;11742;53.532;-1.478;2022-10-26T12:34:24;22.50;78.80
23147;DHT22;11742;53.532;-1.478;2022-10-26T12:37:09;22.50;78.90
23147;DHT22;11742;53.532;-1.478;2022-10-26T12:39:45;22.50;78.80
23147;DHT22;11742;53.532;-1.478;2022-10-26T12:55:47;22.70;78.90
23147;DHT22;11742;53.532;-1.478;2022-10-26T12:58:30;22.70;78.90
23147;DHT22;11742;53.532;-1.478;2022-10-26T13:06:01;22.80;78.60
23147;DHT22;11742;53.532;-1.478;2022-10-26T13:08:27;22.80;79.50
23147;DHT22;11742;53.532;-1.478;2022-10-26T13:11:29;22.80;78.30
23147;DHT22;11742;53.532;-1.478;2022-10-26T13:14:02;22.90;78.20
23147;DHT22;11742;53.532;-1.478;2022-10-26T13:16:29;22.90;78.20
23147;DHT22;11742;53.532;-1.478;2022-10-26T13:18:55;22.90;78.10
23147;DHT22;11742;53.532;-1.478;2022-10-26T13:21:22;23.00;78.10
23147;DHT22;11742;53.532;-1.478;2022-10-26T13:23:58;23.00;78.00
23147;DHT22;11742;53.532;-1.478;2022-10-26T13:26:30;23.00;78.00
23147;DHT22;11742;53.532;-1.478;2022-10-26T13:28:58;23.00;77.90
23147;DHT22;11742;53.532;-1.478;2022-10-26T13:34:18;23.10;77.70
23147;DHT22;11742;53.532;-1.478;2022-10-26T13:37:13;23.10;77.50
23147;DHT22;11742;53.532;-1.478;2022-10-26T13:39:44;23.20;77.50
23147;DHT22;11742;53.532;-1.478;2022-10-26T13:42:19;23.20;77.40
23147;DHT22;11742;53.532;-1.478;2022-10-26T13:44:58;23.20;77.30
23147;DHT22;11742;53.532;-1.478;2022-10-26T13:47:52;23.20;77.30
23147;DHT22;11742;53.532;-1.478;2022-10-26T13:50:19;23.20;77.40
23147;DHT22;11742;53.532;-1.478;2022-10-26T13:52:54;23.30;77.40
23147;DHT22;11742;53.532;-1.478;2022-10-26T13:58:08;23.30;77.00
23147;DHT22;11742;53.532;-1.478;2022-10-26T14:00:37;23.30;76.80
23147;DHT22;11742;53.532;-1.478;2022-10-26T14:03:13;23.30;76.80
23147;DHT22;11742;53.532;-1.478;2022-10-26T14:05:46;23.40;76.90
23147;DHT22;11742;53.532;-1.478;2022-10-26T14:08:17;23.40;76.90
23147;DHT22;11742;53.532;-1.478;2022-10-26T14:10:55;23.40;76.70
23147;DHT22;11742;53.532;-1.478;2022-10-26T14:13:24;23.40;76.50
23147;DHT22;11742;53.532;-1.478;2022-10-26T14:15:51;23.40;76.50
23147;DHT22;11742;53.532;-1.478;2022-10-26T14:18:22;23.40;76.10
23147;DHT22;11742;53.532;-1.478;2022-10-26T14:21:03;23.40;75.80
23147;DHT22;11742;53.532;-1.478;2022-10-26T14:23:59;23.40;75.80
23147;DHT22;11742;53.532;-1.478;2022-10-26T14:28:59;23.40;75.70
23147;DHT22;11742;53.532;-1.478;2022-10-26T14:31:30;23.40;75.80
23147;DHT22;11742;53.532;-1.478;2022-10-26T14:33:58;23.40;75.90
23147;DHT22;11742;53.532;-1.478;2022-10-26T14:41:39;23.40;76.20
23147;DHT22;11742;53.532;-1.478;2022-10-26T14:44:17;23.40;76.20
23147;DHT22;11742;53.532;-1.478;2022-10-26T14:46:43;23.40;76.20
23147;DHT22;11742;53.532;-1.478;2022-10-26T14:51:42;23.40;76.10
23147;DHT22;11742;53.532;-1.478;2022-10-26T14:54:22;23.40;76.10
23147;DHT22;11742;53.532;-1.478;2022-10-26T14:56:48;23.40;76.00
23147;DHT22;11742;53.532;-1.478;2022-10-26T14:59:29;23.40;76.10
23147;DHT22;11742;53.532;-1.478;2022-10-26T15:02:01;23.50;76.10
23147;DHT22;11742;53.532;-1.478;2022-10-26T15:12:31;23.40;76.10
23147;DHT22;11742;53.532;-1.478;2022-10-26T15:17:41;23.40;76.00
23147;DHT22;11742;53.532;-1.478;2022-10-26T15:20:14;23.40;76.10
23147;DHT22;11742;53.532;-1.478;2022-10-26T15:22:42;23.40;76.00
23147;DHT22;11742;53.532;-1.478;2022-10-26T15:25:16;23.40;75.90
23147;DHT22;11742;53.532;-1.478;2022-10-26T15:27:48;23.40;75.80
23147;DHT22;11742;53.532;-1.478;2022-10-26T15:30:25;23.40;75.80
23147;DHT22;11742;53.532;-1.478;2022-10-26T15:32:53;23.40;75.90
23147;DHT22;11742;53.532;-1.478;2022-10-26T15:37:50;23.40;75.80
23147;DHT22;11742;53.532;-1.478;2022-10-26T15:40:17;23.40;75.80
23147;DHT22;11742;53.532;-1.478;2022-10-26T15:42:46;23.40;75.70
23147;DHT22;11742;53.532;-1.478;2022-10-26T15:45:32;23.40;75.60
23147;DHT22;11742;53.532;-1.478;2022-10-26T15:48:15;23.40;75.50
23147;DHT22;11742;53.532;-1.478;2022-10-26T15:50:42;23.40;75.30
23147;DHT22;11742;53.532;-1.478;2022-10-26T15:53:14;23.40;75.20
23147;DHT22;11742;53.532;-1.478;2022-10-26T15:55:40;23.40;75.10
23147;DHT22;11742;53.532;-1.478;2022-10-26T15:58:09;23.40;75.80
23147;DHT22;11742;53.532;-1.478;2022-10-26T16:00:35;23.30;74.50
23147;DHT22;11742;53.532;-1.478;2022-10-26T16:03:01;23.30;74.50
23147;DHT22;11742;53.532;-1.478;2022-10-26T16:05:27;23.30;74.50
23147;DHT22;11742;53.532;-1.478;2022-10-26T16:07:53;23.30;74.20
23147;DHT22;11742;53.532;-1.478;2022-10-26T16:10:23;23.20;75.20
23147;DHT22;11742;53.532;-1.478;2022-10-26T16:12:50;23.30;74.40
23147;DHT22;11742;53.532;-1.478;2022-10-26T16:15:20;23.30;74.20
23147;DHT22;11742;53.532;-1.478;2022-10-26T16:17:47;23.20;74.10
23147;DHT22;11742;53.532;-1.478;2022-10-26T16:20:15;23.20;74.10
23147;DHT22;11742;53.532;-1.478;2022-10-26T16:22:41;23.20;74.00
23147;DHT22;11742;53.532;-1.478;2022-10-26T16:25:13;23.20;73.90
23147;DHT22;11742;53.532;-1.478;2022-10-26T16:27:39;23.10;73.80
23147;DHT22;11742;53.532;-1.478;2022-10-26T16:30:05;23.10;73.70
23147;DHT22;11742;53.532;-1.478;2022-10-26T16:32:33;23.10;73.60
23147;DHT22;11742;53.532;-1.478;2022-10-26T16:34:59;23.10;73.60
23147;DHT22;11742;53.532;-1.478;2022-10-26T16:37:27;23.10;73.50
23147;DHT22;11742;53.532;-1.478;2022-10-26T16:39:53;23.00;73.40
23147;DHT22;11742;53.532;-1.478;2022-10-26T16:42:19;23.00;73.40
23147;DHT22;11742;53.532;-1.478;2022-10-26T16:44:44;23.00;73.30
23147;DHT22;11742;53.532;-1.478;2022-10-26T16:47:10;23.00;73.30
23147;DHT22;11742;53.532;-1.478;2022-10-26T16:49:35;23.00;73.30
23147;DHT22;11742;53.532;-1.478;2022-10-26T16:52:03;23.00;73.30
23147;DHT22;11742;53.532;-1.478;2022-10-26T16:54:29;23.00;73.30
23147;DHT22;11742;53.532;-1.478;2022-10-26T16:56:55;22.90;73.20
23147;DHT22;11742;53.532;-1.478;2022-10-26T16:59:21;22.90;74.00
23147;DHT22;11742;53.532;-1.478;2022-10-26T17:01:46;22.90;73.20
23147;DHT22;11742;53.532;-1.478;2022-10-26T17:04:12;22.90;73.20
23147;DHT22;11742;53.532;-1.478;2022-10-26T17:06:38;22.90;73.20
23147;DHT22;11742;53.532;-1.478;2022-10-26T17:09:03;22.80;73.10
23147;DHT22;11742;53.532;-1.478;2022-10-26T17:11:30;22.80;73.00
23147;DHT22;11742;53.532;-1.478;2022-10-26T17:13:56;22.80;73.00
23147;DHT22;11742;53.532;-1.478;2022-10-26T17:16:23;22.80;73.10
23147;DHT22;11742;53.532;-1.478;2022-10-26T17:18:51;22.80;72.90
23147;DHT22;11742;53.532;-1.478;2022-10-26T17:21:19;22.70;72.90
23147;DHT22;11742;53.532;-1.478;2022-10-26T17:23:45;22.80;72.80
23147;DHT22;11742;53.532;-1.478;2022-10-26T17:26:13;22.70;72.60
23147;DHT22;11742;53.532;-1.478;2022-10-26T17:28:39;22.70;72.50
23147;DHT22;11742;53.532;-1.478;2022-10-26T17:31:13;22.70;72.40
23147;DHT22;11742;53.532;-1.478;2022-10-26T17:33:41;22.70;72.40
23147;DHT22;11742;53.532;-1.478;2022-10-26T17:36:12;22.70;72.30
23147;DHT22;11742;53.532;-1.478;2022-10-26T17:38:39;22.60;72.20
23147;DHT22;11742;53.532;-1.478;2022-10-26T17:41:07;22.60;72.10
23147;DHT22;11742;53.532;-1.478;2022-10-26T17:43:35;22.60;71.90
23147;DHT22;11742;53.532;-1.478;2022-10-26T17:46:06;22.60;71.80
23147;DHT22;11742;53.532;-1.478;2022-10-26T17:48:32;22.60;71.80